sensor_id;sensor_type;location;lat;lon;timestamp;pressure;altitude;pressure_sealevel;temperature;humidity
9695;BME280;4690;52.422;13.486;2023-01-29T00:04:36;102465.91;;;0.89;73.13
9695;BME280;4690;52.422;13.486;2023-01-29T00:07:02;102463.72;;;0.94;73.31
9695;BME280;4690;52.422;13.486;2023-01-29T00:09:28;102463.22;;;1.00;72.69
9695;BME280;4690;52.422;13.486;2023-01-29T00:11:54;102452.16;;;0.81;73.70
9695;BME280;4690;52.422;13.486;2023-01-29T00:14:19;102455.09;;;0.89;73.01
9695;BME280;4690;52.422;13.486;2023-01-29T00:16:45;102447.34;;;0.73;73.34
9695;BME280;4690;52.422;13.486;2023-01-29T00:19:11;102441.72;;;0.65;74.58
9695;BME280;4690;52.422;13.486;2023-01-29T00:21:37;102439.25;;;0.62;74.42
9695;BME280;4690;52.422;13.486;2023-01-29T00:24:03;102445.75;;;0.59;75.13
9695;BME280;4690;52.422;13.486;2023-01-29T00:26:29;102444.78;;;0.72;74.75
9695;BME280;4690;52.422;13.486;2023-01-29T00:28:55;102455.59;;;0.94;73.57
9695;BME280;4690;52.422;13.486;2023-01-29T00:31:24;102445.91;;;1.03;73.03
9695;BME280;4690;52.422;13.486;2023-01-29T00:33:51;102444.81;;;0.94;73.19
9695;BME280;4690;52.422;13.486;2023-01-29T00:36:19;102434.25;;;0.80;74.19
9695;BME280;4690;52.422;13.486;2023-01-29T00:38:45;102427.88;;;0.92;73.83
9695;BME280;4690;52.422;13.486;2023-01-29T00:41:20;102419.28;;;0.76;73.77
9695;BME280;4690;52.422;13.486;2023-01-29T00:44:06;102423.72;;;0.88;74.75
9695;BME280;4690;52.422;13.486;2023-01-29T00:46:50;102412.44;;;0.83;73.92
9695;BME280;4690;52.422;13.486;2023-01-29T00:49:16;102412.53;;;0.70;74.96
9695;BME280;4690;52.422;13.486;2023-01-29T00:51:42;102406.19;;;0.82;74.87
9695;BME280;4690;52.422;13.486;2023-01-29T00:54:07;102404.34;;;0.94;73.54
9695;BME280;4690;52.422;13.486;2023-01-29T00:56:36;102403.09;;;0.87;74.91
9695;BME280;4690;52.422;13.486;2023-01-29T00:59:03;102402.63;;;0.93;74.44
9695;BME280;4690;52.422;13.486;2023-01-29T01:01:29;102396.09;;;0.96;73.83
9695;BME280;4690;52.422;13.486;2023-01-29T01:04:13;102398.56;;;1.10;74.49
9695;BME280;4690;52.422;13.486;2023-01-29T01:06:41;102410.47;;;0.96;74.04
9695;BME280;4690;52.422;13.486;2023-01-29T01:09:09;102409.59;;;0.96;73.78
9695;BME280;4690;52.422;13.486;2023-01-29T01:11:54;102410.47;;;1.07;74.28
9695;BME280;4690;52.422;13.486;2023-01-29T01:14:21;102414.13;;;0.84;74.58
9695;BME280;4690;52.422;13.486;2023-01-29T01:16:47;102406.88;;;0.62;75.64
9695;BME280;4690;52.422;13.486;2023-01-29T01:19:14;102407.78;;;0.85;75.31
9695;BME280;4690;52.422;13.486;2023-01-29T01:21:41;102413.53;;;1.03;73.88
9695;BME280;4690;52.422;13.486;2023-01-29T01:24:14;102420.63;;;1.04;74.09
9695;BME280;4690;52.422;13.486;2023-01-29T01:26:40;102418.06;;;1.02;74.29
9695;BME280;4690;52.422;13.486;2023-01-29T01:29:05;102412.19;;;1.08;73.62
9695;BME280;4690;52.422;13.486;2023-01-29T01:31:31;102417.69;;;0.96;74.56
9695;BME280;4690;52.422;13.486;2023-01-29T01:33:57;102415.63;;;0.88;74.79
9695;BME280;4690;52.422;13.486;2023-01-29T01:36:23;102419.44;;;0.97;74.38
9695;BME280;4690;52.422;13.486;2023-01-29T01:38:48;102413.63;;;1.01;74.41
9695;BME280;4690;52.422;13.486;2023-01-29T01:41:18;102406.78;;;0.97;74.22
9695;BME280;4690;52.422;13.486;2023-01-29T01:44:00;102410.47;;;0.85;75.38
9695;BME280;4690;52.422;13.486;2023-01-29T01:46:36;102414.78;;;0.99;74.88
9695;BME280;4690;52.422;13.486;2023-01-29T01:49:17;102408.13;;;0.92;75.67
9695;BME280;4690;52.422;13.486;2023-01-29T01:51:50;102410.22;;;0.77;76.22
9695;BME280;4690;52.422;13.486;2023-01-29T01:54:28;102411.06;;;0.88;75.93
9695;BME280;4690;52.422;13.486;2023-01-29T01:57:05;102423.47;;;0.91;76.17
9695;BME280;4690;52.422;13.486;2023-01-29T01:59:39;102421.13;;;0.98;76.03
9695;BME280;4690;52.422;13.486;2023-01-29T02:02:06;102420.78;;;1.02;74.99
9695;BME280;4690;52.422;13.486;2023-01-29T02:04:52;102406.53;;;0.89;76.03
9695;BME280;4690;52.422;13.486;2023-01-29T02:07:45;102400.03;;;0.92;76.29
9695;BME280;4690;52.422;13.486;2023-01-29T02:10:51;102397.84;;;0.97;75.43
9695;BME280;4690;52.422;13.486;2023-01-29T02:13:17;102390.22;;;1.13;75.02
9695;BME280;4690;52.422;13.486;2023-01-29T02:15:47;102390.94;;;1.04;76.03
9695;BME280;4690;52.422;13.486;2023-01-29T02:18:18;102391.81;;;1.16;74.94
9695;BME280;4690;52.422;13.486;2023-01-29T02:21:12;102387.88;;;1.20;75.47
9695;BME280;4690;52.422;13.486;2023-01-29T02:23:57;102390.22;;;1.13;75.09
9695;BME280;4690;52.422;13.486;2023-01-29T02:26:54;102390.81;;;1.05;75.85
9695;BME280;4690;52.422;13.486;2023-01-29T02:35:31;102377.59;;;0.91;76.03
9695;BME280;4690;52.422;13.486;2023-01-29T02:41:10;102370.72;;;0.87;76.38
9695;BME280;4690;52.422;13.486;2023-01-29T02:44:17;102383.84;;;0.92;76.53
9695;BME280;4690;52.422;13.486;2023-01-29T02:49:39;102389.84;;;0.95;76.88
9695;BME280;4690;52.422;13.486;2023-01-29T02:52:18;102392.53;;;0.73;76.84
9695;BME280;4690;52.422;13.486;2023-01-29T02:54:52;102376.75;;;0.91;76.41
9695;BME280;4690;52.422;13.486;2023-01-29T02:57:38;102373.66;;;0.95;76.03
9695;BME280;4690;52.422;13.486;2023-01-29T03:00:16;102359.06;;;0.98;76.81
9695;BME280;4690;52.422;13.486;2023-01-29T03:05:36;102352.91;;;0.84;77.42
9695;BME280;4690;52.422;13.486;2023-01-29T03:08:11;102358.44;;;1.05;77.07
9695;BME280;4690;52.422;13.486;2023-01-29T03:10:53;102357.44;;;1.18;76.16
9695;BME280;4690;52.422;13.486;2023-01-29T03:13:56;102355.81;;;1.26;76.05
9695;BME280;4690;52.422;13.486;2023-01-29T03:16:35;102361.88;;;1.07;75.93
9695;BME280;4690;52.422;13.486;2023-01-29T03:19:11;102356.47;;;1.07;76.05
9695;BME280;4690;52.422;13.486;2023-01-29T03:21:54;102349.84;;;0.89;76.73
9695;BME280;4690;52.422;13.486;2023-01-29T03:24:49;102346.81;;;0.82;77.14
9695;BME280;4690;52.422;13.486;2023-01-29T03:27:40;102339.91;;;1.01;77.53
9695;BME280;4690;52.422;13.486;2023-01-29T03:30:29;102350.59;;;1.02;77.53
9695;BME280;4690;52.422;13.486;2023-01-29T03:33:20;102353.88;;;1.06;76.89
9695;BME280;4690;52.422;13.486;2023-01-29T03:36:16;102346.16;;;1.01;76.76
9695;BME280;4690;52.422;13.486;2023-01-29T03:38:44;102342.84;;;0.98;77.55
9695;BME280;4690;52.422;13.486;2023-01-29T03:41:33;102340.53;;;1.04;77.28
9695;BME280;4690;52.422;13.486;2023-01-29T03:44:26;102336.25;;;1.02;77.04
9695;BME280;4690;52.422;13.486;2023-01-29T03:47:15;102327.16;;;1.03;76.42
9695;BME280;4690;52.422;13.486;2023-01-29T03:58:44;102309.63;;;0.97;77.24
9695;BME280;4690;52.422;13.486;2023-01-29T04:06:34;102288.28;;;0.94;76.92
9695;BME280;4690;52.422;13.486;2023-01-29T04:09:38;102279.72;;;0.78;78.29
9695;BME280;4690;52.422;13.486;2023-01-29T04:12:09;102280.78;;;0.98;77.58
9695;BME280;4690;52.422;13.486;2023-01-29T04:14:37;102281.41;;;0.90;77.71
9695;BME280;4690;52.422;13.486;2023-01-29T04:17:13;102284.84;;;0.92;77.84
9695;BME280;4690;52.422;13.486;2023-01-29T04:19:41;102281.03;;;0.95;77.88
9695;BME280;4690;52.422;13.486;2023-01-29T04:22:19;102269.50;;;0.93;77.80
9695;BME280;4690;52.422;13.486;2023-01-29T04:24:48;102257.47;;;0.97;77.67
9695;BME280;4690;52.422;13.486;2023-01-29T04:38:10;102248.31;;;0.88;78.50
9695;BME280;4690;52.422;13.486;2023-01-29T04:43:45;102232.84;;;1.22;77.63
9695;BME280;4690;52.422;13.486;2023-01-29T04:50:12;102236.34;;;1.13;77.81
9695;BME280;4690;52.422;13.486;2023-01-29T05:00:56;102240.69;;;1.25;77.88
9695;BME280;4690;52.422;13.486;2023-01-29T05:03:26;102245.41;;;1.12;78.84
9695;BME280;4690;52.422;13.486;2023-01-29T05:05:54;102243.81;;;1.09;78.72
9695;BME280;4690;52.422;13.486;2023-01-29T05:08:24;102246.16;;;1.35;78.54
9695;BME280;4690;52.422;13.486;2023-01-29T05:10:54;102243.75;;;1.53;77.95
9695;BME280;4690;52.422;13.486;2023-01-29T05:13:23;102238.31;;;1.32;77.94
9695;BME280;4690;52.422;13.486;2023-01-29T05:18:36;102246.94;;;1.58;78.48
9695;BME280;4690;52.422;13.486;2023-01-29T05:21:06;102251.41;;;1.69;77.80
9695;BME280;4690;52.422;13.486;2023-01-29T05:23:33;102251.16;;;1.72;77.77
9695;BME280;4690;52.422;13.486;2023-01-29T05:25:58;102245.16;;;1.47;80.20
9695;BME280;4690;52.422;13.486;2023-01-29T05:28:24;102259.28;;;1.40;81.53
9695;BME280;4690;52.422;13.486;2023-01-29T05:30:53;102245.97;;;1.27;82.71
9695;BME280;4690;52.422;13.486;2023-01-29T05:33:23;102247.78;;;1.26;83.18
9695;BME280;4690;52.422;13.486;2023-01-29T05:35:49;102249.06;;;1.22;83.59
9695;BME280;4690;52.422;13.486;2023-01-29T05:38:16;102257.41;;;1.19;85.10
9695;BME280;4690;52.422;13.486;2023-01-29T05:40:43;102261.69;;;1.22;84.83
9695;BME280;4690;52.422;13.486;2023-01-29T05:43:23;102259.06;;;1.31;84.45
9695;BME280;4690;52.422;13.486;2023-01-29T05:45:57;102258.53;;;1.17;85.46
9695;BME280;4690;52.422;13.486;2023-01-29T05:48:25;102256.34;;;1.10;86.33
9695;BME280;4690;52.422;13.486;2023-01-29T05:50:52;102257.19;;;1.11;87.01
9695;BME280;4690;52.422;13.486;2023-01-29T05:53:18;102253.13;;;1.17;87.64
9695;BME280;4690;52.422;13.486;2023-01-29T05:55:46;102263.06;;;1.16;88.53
9695;BME280;4690;52.422;13.486;2023-01-29T05:58:12;102265.50;;;1.19;88.53
9695;BME280;4690;52.422;13.486;2023-01-29T06:00:39;102268.22;;;1.19;88.60
9695;BME280;4690;52.422;13.486;2023-01-29T06:03:05;102266.44;;;1.29;88.57
9695;BME280;4690;52.422;13.486;2023-01-29T06:05:31;102270.34;;;1.04;89.78
9695;BME280;4690;52.422;13.486;2023-01-29T06:07:57;102265.41;;;1.09;89.32
9695;BME280;4690;52.422;13.486;2023-01-29T06:10:23;102278.91;;;1.09;90.15
9695;BME280;4690;52.422;13.486;2023-01-29T06:12:49;102278.44;;;1.04;90.44
9695;BME280;4690;52.422;13.486;2023-01-29T06:15:14;102276.22;;;0.98;91.06
9695;BME280;4690;52.422;13.486;2023-01-29T06:17:41;102284.94;;;1.13;91.06
9695;BME280;4690;52.422;13.486;2023-01-29T06:20:08;102286.47;;;1.27;90.84
9695;BME280;4690;52.422;13.486;2023-01-29T06:22:34;102287.44;;;1.26;90.69
9695;BME280;4690;52.422;13.486;2023-01-29T06:25:00;102287.78;;;1.44;89.88
9695;BME280;4690;52.422;13.486;2023-01-29T06:27:26;102285.44;;;1.39;88.96
9695;BME280;4690;52.422;13.486;2023-01-29T06:29:51;102280.78;;;1.41;89.60
9695;BME280;4690;52.422;13.486;2023-01-29T06:32:17;102277.38;;;1.28;90.22
9695;BME280;4690;52.422;13.486;2023-01-29T06:34:43;102273.56;;;1.30;90.14
9695;BME280;4690;52.422;13.486;2023-01-29T06:37:09;102266.41;;;1.08;90.46
9695;BME280;4690;52.422;13.486;2023-01-29T06:39:34;102272.75;;;1.19;91.41
9695;BME280;4690;52.422;13.486;2023-01-29T06:42:00;102266.41;;;1.08;91.53
9695;BME280;4690;52.422;13.486;2023-01-29T06:44:26;102275.22;;;1.22;91.66
9695;BME280;4690;52.422;13.486;2023-01-29T06:46:52;102271.22;;;1.37;90.14
9695;BME280;4690;52.422;13.486;2023-01-29T06:49:17;102285.38;;;1.18;90.88
9695;BME280;4690;52.422;13.486;2023-01-29T06:51:43;102290.25;;;1.36;91.05
9695;BME280;4690;52.422;13.486;2023-01-29T06:54:09;102286.13;;;1.20;91.53
9695;BME280;4690;52.422;13.486;2023-01-29T06:56:35;102274.75;;;1.05;92.46
9695;BME280;4690;52.422;13.486;2023-01-29T06:59:01;102280.53;;;0.89;93.11
9695;BME280;4690;52.422;13.486;2023-01-29T07:01:27;102270.22;;;1.06;92.97
9695;BME280;4690;52.422;13.486;2023-01-29T07:03:53;102280.34;;;1.25;92.31
9695;BME280;4690;52.422;13.486;2023-01-29T07:06:19;102282.44;;;1.21;92.43
9695;BME280;4690;52.422;13.486;2023-01-29T07:08:45;102279.59;;;1.23;91.88
9695;BME280;4690;52.422;13.486;2023-01-29T07:11:11;102273.34;;;1.22;91.40
9695;BME280;4690;52.422;13.486;2023-01-29T07:13:37;102276.59;;;1.37;91.68
9695;BME280;4690;52.422;13.486;2023-01-29T07:16:04;102281.16;;;1.37;91.65
9695;BME280;4690;52.422;13.486;2023-01-29T07:18:31;102272.31;;;1.34;91.30
9695;BME280;4690;52.422;13.486;2023-01-29T07:20:57;102272.41;;;1.44;91.34
9695;BME280;4690;52.422;13.486;2023-01-29T07:23:23;102264.88;;;1.27;92.32
9695;BME280;4690;52.422;13.486;2023-01-29T07:25:49;102268.03;;;1.32;92.35
9695;BME280;4690;52.422;13.486;2023-01-29T07:28:19;102263.41;;;1.23;92.80
9695;BME280;4690;52.422;13.486;2023-01-29T07:30:45;102263.69;;;1.41;92.53
9695;BME280;4690;52.422;13.486;2023-01-29T07:33:11;102267.53;;;1.38;92.06
9695;BME280;4690;52.422;13.486;2023-01-29T07:35:42;102272.88;;;1.49;91.96
9695;BME280;4690;52.422;13.486;2023-01-29T07:38:09;102272.56;;;1.31;92.80
9695;BME280;4690;52.422;13.486;2023-01-29T07:40:35;102274.91;;;1.36;92.63
9695;BME280;4690;52.422;13.486;2023-01-29T07:43:05;102276.88;;;1.34;93.03
9695;BME280;4690;52.422;13.486;2023-01-29T07:45:36;102267.00;;;1.44;92.40
9695;BME280;4690;52.422;13.486;2023-01-29T07:48:05;102251.97;;;1.51;92.00
9695;BME280;4690;52.422;13.486;2023-01-29T07:50:33;102249.78;;;1.24;92.87
9695;BME280;4690;52.422;13.486;2023-01-29T07:53:00;102251.44;;;1.37;92.66
9695;BME280;4690;52.422;13.486;2023-01-29T07:55:26;102250.34;;;1.39;92.22
9695;BME280;4690;52.422;13.486;2023-01-29T07:58:00;102240.66;;;1.37;92.78
9695;BME280;4690;52.422;13.486;2023-01-29T08:00:28;102228.16;;;1.36;93.05
9695;BME280;4690;52.422;13.486;2023-01-29T08:03:04;102227.41;;;1.33;93.31
9695;BME280;4690;52.422;13.486;2023-01-29T08:05:30;102235.78;;;1.51;92.62
9695;BME280;4690;52.422;13.486;2023-01-29T08:07:56;102236.31;;;1.45;93.42
9695;BME280;4690;52.422;13.486;2023-01-29T08:10:21;102247.19;;;1.55;92.57
9695;BME280;4690;52.422;13.486;2023-01-29T08:12:55;102242.38;;;1.59;92.54
9695;BME280;4690;52.422;13.486;2023-01-29T08:15:21;102226.03;;;1.39;93.23
9695;BME280;4690;52.422;13.486;2023-01-29T08:17:47;102233.13;;;1.40;93.59
9695;BME280;4690;52.422;13.486;2023-01-29T08:20:13;102221.31;;;1.52;93.91
9695;BME280;4690;52.422;13.486;2023-01-29T08:22:39;102233.88;;;1.63;93.37
9695;BME280;4690;52.422;13.486;2023-01-29T08:25:05;102235.25;;;1.57;93.50
9695;BME280;4690;52.422;13.486;2023-01-29T08:27:31;102233.34;;;1.48;93.25
9695;BME280;4690;52.422;13.486;2023-01-29T08:29:56;102227.88;;;1.39;94.18
9695;BME280;4690;52.422;13.486;2023-01-29T08:32:22;102227.50;;;1.64;93.69
9695;BME280;4690;52.422;13.486;2023-01-29T08:34:48;102228.22;;;1.66;93.42
9695;BME280;4690;52.422;13.486;2023-01-29T08:37:13;102230.09;;;1.54;93.61
9695;BME280;4690;52.422;13.486;2023-01-29T08:39:39;102223.69;;;1.67;94.39
9695;BME280;4690;52.422;13.486;2023-01-29T08:42:05;102220.13;;;1.66;93.49
9695;BME280;4690;52.422;13.486;2023-01-29T08:44:31;102222.28;;;1.72;93.55
9695;BME280;4690;52.422;13.486;2023-01-29T08:46:56;102220.81;;;1.68;93.46
9695;BME280;4690;52.422;13.486;2023-01-29T08:49:22;102225.66;;;1.65;93.99
9695;BME280;4690;52.422;13.486;2023-01-29T08:51:48;102224.00;;;1.73;93.44
9695;BME280;4690;52.422;13.486;2023-01-29T08:54:16;102227.28;;;1.77;93.62
9695;BME280;4690;52.422;13.486;2023-01-29T08:56:42;102232.56;;;1.78;93.82
9695;BME280;4690;52.422;13.486;2023-01-29T08:59:09;102232.94;;;1.74;94.12
9695;BME280;4690;52.422;13.486;2023-01-29T09:01:35;102235.59;;;1.64;93.72
9695;BME280;4690;52.422;13.486;2023-01-29T09:04:01;102224.50;;;1.46;94.87
9695;BME280;4690;52.422;13.486;2023-01-29T09:06:27;102216.88;;;1.51;94.95
9695;BME280;4690;52.422;13.486;2023-01-29T09:08:53;102217.47;;;1.34;96.58
9695;BME280;4690;52.422;13.486;2023-01-29T09:11:18;102220.69;;;1.49;95.27
9695;BME280;4690;52.422;13.486;2023-01-29T09:13:44;102213.50;;;1.59;95.63
9695;BME280;4690;52.422;13.486;2023-01-29T09:16:10;102208.97;;;1.60;95.99
9695;BME280;4690;52.422;13.486;2023-01-29T09:18:36;102203.75;;;1.68;95.36
9695;BME280;4690;52.422;13.486;2023-01-29T09:21:01;102213.19;;;1.52;95.31
9695;BME280;4690;52.422;13.486;2023-01-29T09:23:28;102213.78;;;1.56;96.44
9695;BME280;4690;52.422;13.486;2023-01-29T09:25:55;102216.22;;;1.59;96.22
9695;BME280;4690;52.422;13.486;2023-01-29T09:28:22;102219.31;;;1.54;96.42
9695;BME280;4690;52.422;13.486;2023-01-29T09:30:48;102220.94;;;1.46;96.91
9695;BME280;4690;52.422;13.486;2023-01-29T09:33:14;102220.03;;;1.56;97.51
9695;BME280;4690;52.422;13.486;2023-01-29T09:35:41;102222.88;;;1.76;96.43
9695;BME280;4690;52.422;13.486;2023-01-29T09:38:10;102215.03;;;1.73;96.34
9695;BME280;4690;52.422;13.486;2023-01-29T09:43:48;102213.56;;;1.69;97.27
9695;BME280;4690;52.422;13.486;2023-01-29T09:46:42;102199.91;;;1.61;97.27
9695;BME280;4690;52.422;13.486;2023-01-29T09:49:27;102189.31;;;1.78;96.93
9695;BME280;4690;52.422;13.486;2023-01-29T09:52:19;102187.66;;;1.87;96.49
9695;BME280;4690;52.422;13.486;2023-01-29T09:57:56;102176.28;;;2.14;96.01
9695;BME280;4690;52.422;13.486;2023-01-29T10:15:19;102150.53;;;2.30;94.99
9695;BME280;4690;52.422;13.486;2023-01-29T10:23:53;102120.78;;;2.30;95.33
9695;BME280;4690;52.422;13.486;2023-01-29T10:26:27;102130.75;;;2.29;95.40
9695;BME280;4690;52.422;13.486;2023-01-29T10:28:56;102130.41;;;2.63;95.76
9695;BME280;4690;52.422;13.486;2023-01-29T10:31:32;102126.44;;;2.96;94.13
9695;BME280;4690;52.422;13.486;2023-01-29T10:34:13;102131.81;;;2.86;93.11
9695;BME280;4690;52.422;13.486;2023-01-29T10:36:47;102143.09;;;2.91;92.96
9695;BME280;4690;52.422;13.486;2023-01-29T10:39:15;102143.34;;;2.79;93.35
9695;BME280;4690;52.422;13.486;2023-01-29T10:45:06;102136.25;;;2.97;92.76
9695;BME280;4690;52.422;13.486;2023-01-29T10:50:42;102123.25;;;3.20;90.06
9695;BME280;4690;52.422;13.486;2023-01-29T10:58:46;102109.94;;;3.56;87.88
9695;BME280;4690;52.422;13.486;2023-01-29T11:01:13;102110.47;;;3.69;86.86
9695;BME280;4690;52.422;13.486;2023-01-29T11:03:39;102102.84;;;3.82;86.45
9695;BME280;4690;52.422;13.486;2023-01-29T11:06:22;102088.28;;;3.84;85.19
9695;BME280;4690;52.422;13.486;2023-01-29T11:11:55;102088.25;;;4.39;83.86
9695;BME280;4690;52.422;13.486;2023-01-29T11:14:43;102086.09;;;4.78;82.16
9695;BME280;4690;52.422;13.486;2023-01-29T11:17:19;102075.25;;;4.96;81.19
9695;BME280;4690;52.422;13.486;2023-01-29T11:19:47;102072.31;;;4.71;79.38
9695;BME280;4690;52.422;13.486;2023-01-29T11:22:27;102077.34;;;4.66;80.22
9695;BME280;4690;52.422;13.486;2023-01-29T11:25:17;102074.56;;;4.76;80.11
9695;BME280;4690;52.422;13.486;2023-01-29T11:27:56;102071.38;;;4.63;81.04
9695;BME280;4690;52.422;13.486;2023-01-29T11:30:29;102062.97;;;4.38;81.62
9695;BME280;4690;52.422;13.486;2023-01-29T11:33:21;102055.53;;;4.22;81.27
9695;BME280;4690;52.422;13.486;2023-01-29T11:35:48;102058.31;;;4.31;80.88
9695;BME280;4690;52.422;13.486;2023-01-29T11:38:23;102066.09;;;4.43;81.25
9695;BME280;4690;52.422;13.486;2023-01-29T11:40:51;102054.59;;;4.32;81.97
9695;BME280;4690;52.422;13.486;2023-01-29T11:43:28;102049.59;;;4.37;81.25
9695;BME280;4690;52.422;13.486;2023-01-29T11:46:05;102042.13;;;4.57;81.17
9695;BME280;4690;52.422;13.486;2023-01-29T11:48:49;102039.88;;;4.52;80.72
9695;BME280;4690;52.422;13.486;2023-01-29T11:51:27;102035.97;;;4.72;79.63
9695;BME280;4690;52.422;13.486;2023-01-29T11:54:01;102031.19;;;4.84;79.62
9695;BME280;4690;52.422;13.486;2023-01-29T11:59:00;102025.22;;;4.63;80.36
9695;BME280;4690;52.422;13.486;2023-01-29T12:01:35;102025.53;;;4.60;79.16
9695;BME280;4690;52.422;13.486;2023-01-29T12:04:19;102032.66;;;4.79;79.33
9695;BME280;4690;52.422;13.486;2023-01-29T12:06:49;102019.38;;;4.93;77.78
9695;BME280;4690;52.422;13.486;2023-01-29T12:09:24;102018.38;;;4.77;78.50
9695;BME280;4690;52.422;13.486;2023-01-29T12:11:52;102023.63;;;4.78;78.12
9695;BME280;4690;52.422;13.486;2023-01-29T12:14:28;102011.03;;;4.51;78.96
9695;BME280;4690;52.422;13.486;2023-01-29T12:17:13;102005.75;;;4.67;78.82
9695;BME280;4690;52.422;13.486;2023-01-29T12:19:51;101996.75;;;4.49;79.17
9695;BME280;4690;52.422;13.486;2023-01-29T12:23:03;101984.53;;;4.45;79.70
9695;BME280;4690;52.422;13.486;2023-01-29T12:26:12;101988.94;;;4.28;79.80
9695;BME280;4690;52.422;13.486;2023-01-29T12:37:25;101965.31;;;4.82;77.14
9695;BME280;4690;52.422;13.486;2023-01-29T12:39:53;101972.34;;;4.31;79.13
9695;BME280;4690;52.422;13.486;2023-01-29T12:42:22;101968.47;;;4.52;78.52
9695;BME280;4690;52.422;13.486;2023-01-29T12:49:54;101939.03;;;4.65;77.83
9695;BME280;4690;52.422;13.486;2023-01-29T12:52:33;101937.56;;;4.53;77.92
9695;BME280;4690;52.422;13.486;2023-01-29T12:55:12;101942.34;;;4.77;76.60
9695;BME280;4690;52.422;13.486;2023-01-29T12:57:56;101946.75;;;4.52;76.94
9695;BME280;4690;52.422;13.486;2023-01-29T13:00:28;101946.94;;;4.58;76.72
9695;BME280;4690;52.422;13.486;2023-01-29T13:05:49;101963.84;;;4.70;76.46
9695;BME280;4690;52.422;13.486;2023-01-29T13:08:29;101953.19;;;4.51;76.09
9695;BME280;4690;52.422;13.486;2023-01-29T13:11:00;101955.47;;;4.63;76.62
9695;BME280;4690;52.422;13.486;2023-01-29T13:16:06;101945.31;;;4.65;75.78
9695;BME280;4690;52.422;13.486;2023-01-29T13:18:47;101946.75;;;4.78;75.67
9695;BME280;4690;52.422;13.486;2023-01-29T13:21:24;101943.00;;;4.53;76.32
9695;BME280;4690;52.422;13.486;2023-01-29T13:24:15;101935.91;;;4.34;77.77
9695;BME280;4690;52.422;13.486;2023-01-29T13:26:47;101932.84;;;4.55;77.26
9695;BME280;4690;52.422;13.486;2023-01-29T13:29:23;101930.13;;;4.55;76.70
9695;BME280;4690;52.422;13.486;2023-01-29T13:31:53;101913.69;;;4.82;76.64
9695;BME280;4690;52.422;13.486;2023-01-29T13:34:28;101920.13;;;4.81;76.29
9695;BME280;4690;52.422;13.486;2023-01-29T13:37:09;101925.34;;;4.48;76.73
9695;BME280;4690;52.422;13.486;2023-01-29T13:39:39;101927.16;;;4.40;77.45
9695;BME280;4690;52.422;13.486;2023-01-29T13:42:42;101928.19;;;4.65;76.32
9695;BME280;4690;52.422;13.486;2023-01-29T13:45:18;101922.72;;;4.39;77.09
9695;BME280;4690;52.422;13.486;2023-01-29T13:47:45;101917.38;;;4.29;77.44
9695;BME280;4690;52.422;13.486;2023-01-29T13:50:28;101922.59;;;4.66;77.25
9695;BME280;4690;52.422;13.486;2023-01-29T13:53:02;101925.50;;;4.47;76.49
9695;BME280;4690;52.422;13.486;2023-01-29T13:55:34;101926.44;;;4.38;77.62
9695;BME280;4690;52.422;13.486;2023-01-29T13:58:05;101917.41;;;4.11;78.54
9695;BME280;4690;52.422;13.486;2023-01-29T14:10:40;101907.53;;;4.10;79.24
9695;BME280;4690;52.422;13.486;2023-01-29T14:15:44;101900.78;;;4.32;79.04
9695;BME280;4690;52.422;13.486;2023-01-29T14:20:57;101907.47;;;4.02;79.80
9695;BME280;4690;52.422;13.486;2023-01-29T14:23:50;101896.22;;;3.79;81.71
9695;BME280;4690;52.422;13.486;2023-01-29T14:26:31;101900.31;;;3.65;82.78
9695;BME280;4690;52.422;13.486;2023-01-29T14:29:14;101894.75;;;3.67;83.36
9695;BME280;4690;52.422;13.486;2023-01-29T14:34:32;101888.50;;;3.66;84.59
9695;BME280;4690;52.422;13.486;2023-01-29T14:39:49;101893.47;;;3.89;83.94
9695;BME280;4690;52.422;13.486;2023-01-29T14:50:36;101885.78;;;3.66;86.72
9695;BME280;4690;52.422;13.486;2023-01-29T14:53:15;101881.88;;;3.51;86.77
9695;BME280;4690;52.422;13.486;2023-01-29T14:56:02;101879.19;;;3.23;87.80
9695;BME280;4690;52.422;13.486;2023-01-29T14:58:45;101865.53;;;3.15;89.14
9695;BME280;4690;52.422;13.486;2023-01-29T15:01:30;101857.16;;;3.36;88.46
9695;BME280;4690;52.422;13.486;2023-01-29T15:04:24;101868.56;;;3.12;89.11
9695;BME280;4690;52.422;13.486;2023-01-29T15:07:05;101870.44;;;3.29;88.82
9695;BME280;4690;52.422;13.486;2023-01-29T15:09:45;101866.66;;;3.22;88.79
9695;BME280;4690;52.422;13.486;2023-01-29T15:12:47;101852.66;;;3.27;89.73
9695;BME280;4690;52.422;13.486;2023-01-29T15:15:45;101859.66;;;3.02;89.58
9695;BME280;4690;52.422;13.486;2023-01-29T15:18:41;101850.81;;;3.00;90.53
9695;BME280;4690;52.422;13.486;2023-01-29T15:21:11;101846.69;;;3.23;89.57
9695;BME280;4690;52.422;13.486;2023-01-29T15:23:38;101836.47;;;3.17;88.73
9695;BME280;4690;52.422;13.486;2023-01-29T15:26:09;101835.66;;;3.07;89.98
9695;BME280;4690;52.422;13.486;2023-01-29T15:28:40;101837.69;;;3.05;89.56
9695;BME280;4690;52.422;13.486;2023-01-29T15:31:12;101830.03;;;3.18;89.60
9695;BME280;4690;52.422;13.486;2023-01-29T15:33:45;101833.00;;;3.25;88.75
9695;BME280;4690;52.422;13.486;2023-01-29T15:36:25;101825.94;;;3.14;88.47
9695;BME280;4690;52.422;13.486;2023-01-29T15:39:19;101817.16;;;3.02;89.74
9695;BME280;4690;52.422;13.486;2023-01-29T15:41:46;101821.75;;;3.20;89.33
9695;BME280;4690;52.422;13.486;2023-01-29T15:44:17;101824.03;;;3.24;88.47
9695;BME280;4690;52.422;13.486;2023-01-29T15:46:52;101821.78;;;3.37;88.06
9695;BME280;4690;52.422;13.486;2023-01-29T15:49:31;101828.13;;;3.28;87.82
9695;BME280;4690;52.422;13.486;2023-01-29T15:52:04;101833.22;;;3.31;88.25
9695;BME280;4690;52.422;13.486;2023-01-29T15:54:33;101819.97;;;3.10;88.87
9695;BME280;4690;52.422;13.486;2023-01-29T15:57:01;101814.75;;;2.99;88.99
9695;BME280;4690;52.422;13.486;2023-01-29T15:59:43;101810.03;;;3.01;89.50
9695;BME280;4690;52.422;13.486;2023-01-29T16:02:40;101821.38;;;2.87;90.29
9695;BME280;4690;52.422;13.486;2023-01-29T16:05:15;101812.91;;;3.00;90.05
9695;BME280;4690;52.422;13.486;2023-01-29T16:07:43;101799.50;;;2.98;89.31
9695;BME280;4690;52.422;13.486;2023-01-29T16:10:27;101802.97;;;2.90;88.87
9695;BME280;4690;52.422;13.486;2023-01-29T16:12:55;101807.78;;;2.69;90.49
9695;BME280;4690;52.422;13.486;2023-01-29T16:15:35;101799.78;;;2.77;90.75